sensor_id;sensor_type;location;lat;lon;timestamp;pressure;altitude;pressure_sealevel;temperature;humidity
61769;BME280;47669;48.712;9.016;2022-12-07T00:01:12;96616.88;;;1.34;100.00
61769;BME280;47669;48.712;9.016;2022-12-07T00:03:39;96618.03;;;1.48;100.00
61769;BME280;47669;48.712;9.016;2022-12-07T00:06:06;96620.81;;;1.54;100.00
61769;BME280;47669;48.712;9.016;2022-12-07T00:08:32;96619.53;;;1.50;100.00
61769;BME280;47669;48.712;9.016;2022-12-07T00:11:19;96621.28;;;1.50;100.00
61769;BME280;47669;48.712;9.016;2022-12-07T00:13:46;96615.94;;;1.51;100.00
61769;BME280;47669;48.712;9.016;2022-12-07T00:16:17;96620.97;;;1.36;100.00
61769;BME280;47669;48.712;9.016;2022-12-07T00:18:44;96615.28;;;1.41;100.00
61769;BME280;47669;48.712;9.016;2022-12-07T00:23:40;96614.13;;;1.35;100.00
61769;BME280;47669;48.712;9.016;2022-12-07T00:26:25;96610.25;;;1.48;100.00
61769;BME280;47669;48.712;9.016;2022-12-07T00:28:54;96613.34;;;1.43;100.00
61769;BME280;47669;48.712;9.016;2022-12-07T00:31:22;96610.44;;;1.46;100.00
61769;BME280;47669;48.712;9.016;2022-12-07T00:33:48;96611.88;;;1.41;100.00
61769;BME280;47669;48.712;9.016;2022-12-07T00:36:16;96603.25;;;1.32;100.00
61769;BME280;47669;48.712;9.016;2022-12-07T00:38:42;96610.44;;;1.46;100.00
61769;BME280;47669;48.712;9.016;2022-12-07T00:41:11;96610.91;;;1.50;100.00
61769;BME280;47669;48.712;9.016;2022-12-07T00:43:37;96610.59;;;1.53;100.00
61769;BME280;47669;48.712;9.016;2022-12-07T00:46:03;96600.06;;;1.63;100.00
61769;BME280;47669;48.712;9.016;2022-12-07T00:48:28;96597.13;;;1.49;100.00
61769;BME280;47669;48.712;9.016;2022-12-07T00:50:54;96603.94;;;1.42;100.00
61769;BME280;47669;48.712;9.016;2022-12-07T00:53:19;96604.91;;;1.41;100.00
61769;BME280;47669;48.712;9.016;2022-12-07T00:55:45;96601.00;;;1.45;100.00
61769;BME280;47669;48.712;9.016;2022-12-07T00:58:11;96602.94;;;1.35;100.00
61769;BME280;47669;48.712;9.016;2022-12-07T01:00:38;96599.22;;;1.37;100.00
61769;BME280;47669;48.712;9.016;2022-12-07T01:03:05;96610.09;;;1.49;100.00
61769;BME280;47669;48.712;9.016;2022-12-07T01:05:30;96607.66;;;1.48;100.00
61769;BME280;47669;48.712;9.016;2022-12-07T01:07:56;96602.59;;;1.38;100.00
61769;BME280;47669;48.712;9.016;2022-12-07T01:10:21;96609.44;;;1.31;100.00
61769;BME280;47669;48.712;9.016;2022-12-07T01:12:47;96601.16;;;1.35;100.00
61769;BME280;47669;48.712;9.016;2022-12-07T01:15:12;96606.69;;;1.49;100.00
61769;BME280;47669;48.712;9.016;2022-12-07T01:17:38;96606.84;;;1.47;100.00
61769;BME280;47669;48.712;9.016;2022-12-07T01:20:04;96596.81;;;1.44;100.00
61769;BME280;47669;48.712;9.016;2022-12-07T01:22:29;96604.59;;;1.44;100.00
61769;BME280;47669;48.712;9.016;2022-12-07T01:24:54;96609.13;;;1.50;100.00
61769;BME280;47669;48.712;9.016;2022-12-07T01:27:20;96605.38;;;1.36;100.00
61769;BME280;47669;48.712;9.016;2022-12-07T01:29:45;96602.44;;;1.31;100.00
61769;BME280;47669;48.712;9.016;2022-12-07T01:32:10;96610.06;;;1.33;100.00
61769;BME280;47669;48.712;9.016;2022-12-07T01:34:36;96608.59;;;1.30;100.00
61769;BME280;47669;48.712;9.016;2022-12-07T01:37:01;96603.88;;;1.26;100.00
61769;BME280;47669;48.712;9.016;2022-12-07T01:39:27;96613.63;;;1.32;100.00
61769;BME280;47669;48.712;9.016;2022-12-07T01:41:53;96612.00;;;1.23;100.00
61769;BME280;47669;48.712;9.016;2022-12-07T01:44:25;96613.59;;;1.15;100.00
61769;BME280;47669;48.712;9.016;2022-12-07T01:46:56;96620.25;;;1.26;100.00
61769;BME280;47669;48.712;9.016;2022-12-07T01:49:38;96622.03;;;1.17;100.00
61769;BME280;47669;48.712;9.016;2022-12-07T01:52:28;96621.25;;;1.25;100.00
61769;BME280;47669;48.712;9.016;2022-12-07T01:55:00;96624.16;;;1.30;100.00
61769;BME280;47669;48.712;9.016;2022-12-07T01:57:26;96614.91;;;1.20;100.00
61769;BME280;47669;48.712;9.016;2022-12-07T01:59:53;96613.75;;;1.14;100.00
61769;BME280;47669;48.712;9.016;2022-12-07T02:02:30;96611.31;;;1.21;100.00
61769;BME280;47669;48.712;9.016;2022-12-07T02:05:00;96613.59;;;1.15;100.00
61769;BME280;47669;48.712;9.016;2022-12-07T02:07:27;96617.31;;;1.13;100.00
61769;BME280;47669;48.712;9.016;2022-12-07T02:09:52;96616.34;;;1.22;100.00
61769;BME280;47669;48.712;9.016;2022-12-07T02:12:19;96622.53;;;1.21;100.00
61769;BME280;47669;48.712;9.016;2022-12-07T02:14:45;96616.00;;;1.09;100.00
61769;BME280;47669;48.712;9.016;2022-12-07T02:19:53;96615.00;;;1.02;100.00
61769;BME280;47669;48.712;9.016;2022-12-07T02:22:49;96616.97;;;1.08;100.00
61769;BME280;47669;48.712;9.016;2022-12-07T02:25:39;96612.59;;;1.08;100.00
61769;BME280;47669;48.712;9.016;2022-12-07T02:31:19;96612.47;;;1.18;100.00
61769;BME280;47669;48.712;9.016;2022-12-07T02:33:51;96612.16;;;1.29;100.00
61769;BME280;47669;48.712;9.016;2022-12-07T02:36:25;96602.44;;;1.23;100.00
61769;BME280;47669;48.712;9.016;2022-12-07T02:39:02;96603.06;;;1.17;100.00
61769;BME280;47669;48.712;9.016;2022-12-07T02:44:03;96600.28;;;1.18;100.00
61769;BME280;47669;48.712;9.016;2022-12-07T02:46:39;96596.25;;;1.24;100.00
61769;BME280;47669;48.712;9.016;2022-12-07T02:49:06;96597.53;;;1.12;100.00
61769;BME280;47669;48.712;9.016;2022-12-07T02:51:33;96603.53;;;1.21;100.00
61769;BME280;47669;48.712;9.016;2022-12-07T02:54:00;96595.09;;;1.10;100.00
61769;BME280;47669;48.712;9.016;2022-12-07T03:02:24;96590.06;;;1.09;100.00
61769;BME280;47669;48.712;9.016;2022-12-07T03:15:20;96581.97;;;1.12;100.00
61769;BME280;47669;48.712;9.016;2022-12-07T03:17:49;96582.13;;;1.10;100.00
61769;BME280;47669;48.712;9.016;2022-12-07T03:20:18;96583.75;;;1.11;100.00
61769;BME280;47669;48.712;9.016;2022-12-07T03:22:47;96583.56;;;1.05;100.00
61769;BME280;47669;48.712;9.016;2022-12-07T03:25:15;96578.22;;;1.06;100.00
61769;BME280;47669;48.712;9.016;2022-12-07T03:28:18;96581.81;;;1.13;100.00
61769;BME280;47669;48.712;9.016;2022-12-07T03:30:42;96584.06;;;1.08;100.00
61769;BME280;47669;48.712;9.016;2022-12-07T03:33:18;96577.94;;;1.09;100.00
61769;BME280;47669;48.712;9.016;2022-12-07T03:35:57;96581.63;;;1.07;100.00
61769;BME280;47669;48.712;9.016;2022-12-07T03:38:35;96585.00;;;0.99;100.00
61769;BME280;47669;48.712;9.016;2022-12-07T03:41:14;96577.88;;;0.93;100.00
61769;BME280;47669;48.712;9.016;2022-12-07T03:43:41;96576.28;;;1.08;100.00
61769;BME280;47669;48.712;9.016;2022-12-07T03:46:37;96571.75;;;1.10;100.00
61769;BME280;47669;48.712;9.016;2022-12-07T03:49:26;96576.63;;;1.13;100.00
61769;BME280;47669;48.712;9.016;2022-12-07T03:54:33;96576.91;;;1.02;100.00
61769;BME280;47669;48.712;9.016;2022-12-07T03:57:01;96577.88;;;1.01;100.00
61769;BME280;47669;48.712;9.016;2022-12-07T03:59:27;96580.66;;;1.00;100.00
61769;BME280;47669;48.712;9.016;2022-12-07T04:01:55;96574.16;;;0.95;100.00
61769;BME280;47669;48.712;9.016;2022-12-07T04:04:23;96569.66;;;1.06;100.00
61769;BME280;47669;48.712;9.016;2022-12-07T04:06:49;96576.13;;;1.10;100.00
61769;BME280;47669;48.712;9.016;2022-12-07T04:09:16;96566.38;;;0.95;100.00
61769;BME280;47669;48.712;9.016;2022-12-07T04:11:42;96571.44;;;1.05;100.00
61769;BME280;47669;48.712;9.016;2022-12-07T04:14:08;96565.25;;;1.06;100.00
61769;BME280;47669;48.712;9.016;2022-12-07T04:16:50;96564.75;;;1.03;100.00
61769;BME280;47669;48.712;9.016;2022-12-07T04:19:18;96565.75;;;1.02;100.00
61769;BME280;47669;48.712;9.016;2022-12-07T04:21:44;96559.72;;;1.01;100.00
61769;BME280;47669;48.712;9.016;2022-12-07T04:24:11;96564.09;;;0.92;100.00
61769;BME280;47669;48.712;9.016;2022-12-07T04:26:37;96570.56;;;0.88;100.00
61769;BME280;47669;48.712;9.016;2022-12-07T04:29:02;96569.09;;;0.86;100.00
61769;BME280;47669;48.712;9.016;2022-12-07T04:31:27;96569.06;;;0.77;100.00
61769;BME280;47669;48.712;9.016;2022-12-07T04:33:53;96573.28;;;0.78;100.00
61769;BME280;47669;48.712;9.016;2022-12-07T04:36:18;96562.97;;;0.95;100.00
61769;BME280;47669;48.712;9.016;2022-12-07T04:38:45;96564.31;;;1.07;100.00
61769;BME280;47669;48.712;9.016;2022-12-07T04:41:10;96564.16;;;1.17;100.00
61769;BME280;47669;48.712;9.016;2022-12-07T04:43:35;96556.19;;;1.10;100.00
61769;BME280;47669;48.712;9.016;2022-12-07T04:46:01;96551.28;;;0.91;100.00
61769;BME280;47669;48.712;9.016;2022-12-07T04:48:26;96557.09;;;0.85;100.00
61769;BME280;47669;48.712;9.016;2022-12-07T04:50:52;96561.78;;;0.81;100.00
61769;BME280;47669;48.712;9.016;2022-12-07T04:53:18;96553.59;;;0.59;100.00
61769;BME280;47669;48.712;9.016;2022-12-07T04:55:44;96552.06;;;0.41;100.00
61769;BME280;47669;48.712;9.016;2022-12-07T04:58:10;96545.91;;;0.42;100.00
61769;BME280;47669;48.712;9.016;2022-12-07T05:00:35;96532.34;;;0.48;100.00
61769;BME280;47669;48.712;9.016;2022-12-07T05:03:00;96541.25;;;0.45;100.00
61769;BME280;47669;48.712;9.016;2022-12-07T05:05:26;96535.75;;;0.48;100.00
61769;BME280;47669;48.712;9.016;2022-12-07T05:07:51;96528.63;;;0.50;100.00
61769;BME280;47669;48.712;9.016;2022-12-07T05:10:16;96534.78;;;0.49;100.00
61769;BME280;47669;48.712;9.016;2022-12-07T05:12:42;96533.28;;;0.47;100.00
61769;BME280;47669;48.712;9.016;2022-12-07T05:15:08;96535.50;;;0.68;100.00
61769;BME280;47669;48.712;9.016;2022-12-07T05:17:33;96533.84;;;0.58;100.00
61769;BME280;47669;48.712;9.016;2022-12-07T05:19:58;96537.53;;;0.48;100.00
61769;BME280;47669;48.712;9.016;2022-12-07T05:22:24;96525.97;;;0.68;100.00
61769;BME280;47669;48.712;9.016;2022-12-07T05:24:53;96518.59;;;0.47;100.00
61769;BME280;47669;48.712;9.016;2022-12-07T05:27:18;96513.69;;;0.44;100.00
61769;BME280;47669;48.712;9.016;2022-12-07T05:29:44;96506.72;;;0.36;100.00
61769;BME280;47669;48.712;9.016;2022-12-07T05:32:09;96511.91;;;0.45;100.00
61769;BME280;47669;48.712;9.016;2022-12-07T05:34:34;96511.38;;;-0.02;100.00
61769;BME280;47669;48.712;9.016;2022-12-07T05:36:59;96520.34;;;-0.14;100.00
61769;BME280;47669;48.712;9.016;2022-12-07T05:39:25;96526.38;;;-0.31;100.00
61769;BME280;47669;48.712;9.016;2022-12-07T05:41:50;96525.84;;;-0.61;100.00
61769;BME280;47669;48.712;9.016;2022-12-07T05:44:34;96532.09;;;-0.46;100.00
61769;BME280;47669;48.712;9.016;2022-12-07T05:46:59;96531.41;;;-0.74;100.00
61769;BME280;47669;48.712;9.016;2022-12-07T05:49:24;96541.50;;;-0.63;100.00
61769;BME280;47669;48.712;9.016;2022-12-07T05:51:50;96539.66;;;-0.70;100.00
61769;BME280;47669;48.712;9.016;2022-12-07T05:54:15;96540.47;;;-0.70;100.00
61769;BME280;47669;48.712;9.016;2022-12-07T05:56:40;96550.00;;;-0.88;100.00
61769;BME280;47669;48.712;9.016;2022-12-07T05:59:06;96555.47;;;-0.73;100.00
61769;BME280;47669;48.712;9.016;2022-12-07T06:02:01;96559.59;;;-0.63;100.00
61769;BME280;47669;48.712;9.016;2022-12-07T06:04:29;96551.97;;;-0.28;100.00
61769;BME280;47669;48.712;9.016;2022-12-07T06:06:55;96551.00;;;-0.45;100.00
61769;BME280;47669;48.712;9.016;2022-12-07T06:09:23;96555.66;;;-0.49;100.00
61769;BME280;47669;48.712;9.016;2022-12-07T06:11:49;96557.28;;;-0.30;100.00
61769;BME280;47669;48.712;9.016;2022-12-07T06:14:33;96552.78;;;-0.46;100.00
61769;BME280;47669;48.712;9.016;2022-12-07T06:16:59;96557.03;;;-0.45;100.00
61769;BME280;47669;48.712;9.016;2022-12-07T06:19:24;96559.69;;;-0.54;100.00
61769;BME280;47669;48.712;9.016;2022-12-07T06:21:53;96560.28;;;-0.43;100.00
61769;BME280;47669;48.712;9.016;2022-12-07T06:24:22;96560.28;;;-0.16;100.00
61769;BME280;47669;48.712;9.016;2022-12-07T06:26:47;96563.13;;;-0.28;100.00
61769;BME280;47669;48.712;9.016;2022-12-07T06:29:13;96560.34;;;-0.08;100.00
61769;BME280;47669;48.712;9.016;2022-12-07T06:31:39;96563.50;;;-0.23;100.00
61769;BME280;47669;48.712;9.016;2022-12-07T06:34:08;96571.31;;;-0.14;100.00
61769;BME280;47669;48.712;9.016;2022-12-07T06:36:34;96568.25;;;-0.10;100.00
61769;BME280;47669;48.712;9.016;2022-12-07T06:39:00;96577.28;;;0.04;100.00
61769;BME280;47669;48.712;9.016;2022-12-07T06:41:25;96573.28;;;0.10;100.00
61769;BME280;47669;48.712;9.016;2022-12-07T06:43:50;96558.19;;;0.05;100.00
61769;BME280;47669;48.712;9.016;2022-12-07T06:46:16;96553.69;;;0.15;100.00
61769;BME280;47669;48.712;9.016;2022-12-07T06:48:42;96558.53;;;0.10;100.00
61769;BME280;47669;48.712;9.016;2022-12-07T06:51:08;96556.59;;;0.12;100.00
61769;BME280;47669;48.712;9.016;2022-12-07T06:53:34;96555.69;;;0.22;100.00
61769;BME280;47669;48.712;9.016;2022-12-07T06:55:59;96565.84;;;0.15;100.00
61769;BME280;47669;48.712;9.016;2022-12-07T06:58:25;96553.03;;;0.13;100.00
61769;BME280;47669;48.712;9.016;2022-12-07T07:00:50;96553.56;;;0.17;100.00
61769;BME280;47669;48.712;9.016;2022-12-07T07:03:16;96554.22;;;0.19;100.00
61769;BME280;47669;48.712;9.016;2022-12-07T07:05:42;96549.19;;;0.17;100.00
61769;BME280;47669;48.712;9.016;2022-12-07T07:08:08;96544.34;;;0.23;100.00
61769;BME280;47669;48.712;9.016;2022-12-07T07:10:34;96554.75;;;0.31;100.00
61769;BME280;47669;48.712;9.016;2022-12-07T07:12:59;96547.94;;;0.64;100.00
61769;BME280;47669;48.712;9.016;2022-12-07T07:15:24;96553.34;;;0.36;100.00
61769;BME280;47669;48.712;9.016;2022-12-07T07:17:50;96557.72;;;0.36;100.00
61769;BME280;47669;48.712;9.016;2022-12-07T07:20:15;96557.44;;;0.47;100.00
61769;BME280;47669;48.712;9.016;2022-12-07T07:22:40;96550.94;;;0.43;100.00
61769;BME280;47669;48.712;9.016;2022-12-07T07:25:06;96556.13;;;0.43;100.00
61769;BME280;47669;48.712;9.016;2022-12-07T07:27:31;96553.72;;;0.50;100.00
61769;BME280;47669;48.712;9.016;2022-12-07T07:29:57;96550.97;;;0.51;100.00
61769;BME280;47669;48.712;9.016;2022-12-07T07:32:22;96562.34;;;0.24;100.00
61769;BME280;47669;48.712;9.016;2022-12-07T07:34:48;96553.88;;;0.48;100.00
61769;BME280;47669;48.712;9.016;2022-12-07T07:37:13;96556.81;;;0.53;100.00
61769;BME280;47669;48.712;9.016;2022-12-07T07:39:39;96555.97;;;0.45;100.00
61769;BME280;47669;48.712;9.016;2022-12-07T07:42:04;96568.00;;;0.54;100.00
61769;BME280;47669;48.712;9.016;2022-12-07T07:44:30;96571.09;;;0.57;100.00
61769;BME280;47669;48.712;9.016;2022-12-07T07:46:55;96572.38;;;0.53;100.00
61769;BME280;47669;48.712;9.016;2022-12-07T07:49:20;96584.03;;;0.57;100.00
61769;BME280;47669;48.712;9.016;2022-12-07T07:51:46;96572.06;;;0.56;100.00
61769;BME280;47669;48.712;9.016;2022-12-07T07:54:11;96561.91;;;0.71;100.00
61769;BME280;47669;48.712;9.016;2022-12-07T07:56:36;96560.88;;;0.56;100.00
61769;BME280;47669;48.712;9.016;2022-12-07T07:59:02;96562.88;;;0.70;100.00
61769;BME280;47669;48.712;9.016;2022-12-07T08:01:27;96573.59;;;0.75;100.00
61769;BME280;47669;48.712;9.016;2022-12-07T08:03:52;96567.50;;;1.01;100.00
61769;BME280;47669;48.712;9.016;2022-12-07T08:06:18;96565.56;;;0.95;100.00
61769;BME280;47669;48.712;9.016;2022-12-07T08:08:43;96558.22;;;0.82;100.00
61769;BME280;47669;48.712;9.016;2022-12-07T08:11:09;96556.31;;;0.92;100.00
61769;BME280;47669;48.712;9.016;2022-12-07T08:13:35;96549.53;;;1.00;100.00
61769;BME280;47669;48.712;9.016;2022-12-07T08:16:06;96560.09;;;1.14;100.00
61769;BME280;47669;48.712;9.016;2022-12-07T08:18:37;96554.38;;;1.03;100.00
61769;BME280;47669;48.712;9.016;2022-12-07T08:21:03;96556.81;;;0.96;100.00
61769;BME280;47669;48.712;9.016;2022-12-07T08:23:30;96553.59;;;1.02;100.00
61769;BME280;47669;48.712;9.016;2022-12-07T08:26:07;96559.56;;;0.94;100.00
61769;BME280;47669;48.712;9.016;2022-12-07T08:28:32;96555.84;;;0.97;100.00
61769;BME280;47669;48.712;9.016;2022-12-07T08:31:12;96570.97;;;1.18;100.00
61769;BME280;47669;48.712;9.016;2022-12-07T08:33:38;96564.50;;;1.30;100.00
61769;BME280;47669;48.712;9.016;2022-12-07T08:36:06;96561.94;;;1.38;100.00
61769;BME280;47669;48.712;9.016;2022-12-07T08:38:32;96559.50;;;1.45;100.00
61769;BME280;47669;48.712;9.016;2022-12-07T08:40:58;96562.28;;;1.60;100.00
61769;BME280;47669;48.712;9.016;2022-12-07T08:43:24;96570.06;;;1.52;100.00
61769;BME280;47669;48.712;9.016;2022-12-07T08:45:56;96570.03;;;1.35;100.00
61769;BME280;47669;48.712;9.016;2022-12-07T08:48:26;96562.25;;;1.35;100.00
61769;BME280;47669;48.712;9.016;2022-12-07T08:50:51;96574.41;;;1.51;100.00
61769;BME280;47669;48.712;9.016;2022-12-07T08:53:17;96568.22;;;1.36;100.00
61769;BME280;47669;48.712;9.016;2022-12-07T08:55:44;96566.63;;;1.51;100.00
61769;BME280;47669;48.712;9.016;2022-12-07T08:58:10;96561.63;;;1.74;100.00
61769;BME280;47669;48.712;9.016;2022-12-07T09:00:35;96571.47;;;1.30;100.00
61769;BME280;47669;48.712;9.016;2022-12-07T09:03:01;96565.50;;;1.70;100.00
61769;BME280;47669;48.712;9.016;2022-12-07T09:05:26;96567.13;;;1.55;100.00
61769;BME280;47669;48.712;9.016;2022-12-07T09:07:55;96571.34;;;1.97;100.00
61769;BME280;47669;48.712;9.016;2022-12-07T09:10:22;96564.88;;;1.93;100.00
61769;BME280;47669;48.712;9.016;2022-12-07T09:12:48;96555.78;;;1.89;100.00
61769;BME280;47669;48.712;9.016;2022-12-07T09:15:14;96551.25;;;1.91;100.00
61769;BME280;47669;48.712;9.016;2022-12-07T09:17:39;96555.63;;;1.74;100.00
61769;BME280;47669;48.712;9.016;2022-12-07T09:20:05;96556.06;;;2.02;100.00
61769;BME280;47669;48.712;9.016;2022-12-07T09:22:31;96554.13;;;1.96;100.00
61769;BME280;47669;48.712;9.016;2022-12-07T09:24:58;96561.78;;;1.89;100.00
61769;BME280;47669;48.712;9.016;2022-12-07T09:27:24;96551.03;;;1.92;100.00
61769;BME280;47669;48.712;9.016;2022-12-07T09:29:49;96555.63;;;1.74;100.00
61769;BME280;47669;48.712;9.016;2022-12-07T09:32:14;96557.84;;;2.10;100.00
61769;BME280;47669;48.712;9.016;2022-12-07T09:34:40;96555.06;;;2.28;100.00
61769;BME280;47669;48.712;9.016;2022-12-07T09:37:06;96551.47;;;2.29;100.00
61769;BME280;47669;48.712;9.016;2022-12-07T09:39:32;96544.56;;;2.05;100.00
61769;BME280;47669;48.712;9.016;2022-12-07T09:41:59;96541.69;;;2.47;100.00
61769;BME280;47669;48.712;9.016;2022-12-07T09:44:27;96545.59;;;2.43;100.00
61769;BME280;47669;48.712;9.016;2022-12-07T09:46:53;96554.88;;;2.38;100.00
61769;BME280;47669;48.712;9.016;2022-12-07T09:49:20;96545.72;;;2.58;100.00
61769;BME280;47669;48.712;9.016;2022-12-07T09:51:47;96534.34;;;2.51;100.00
61769;BME280;47669;48.712;9.016;2022-12-07T09:54:14;96533.88;;;2.55;100.00
61769;BME280;47669;48.712;9.016;2022-12-07T09:56:41;96530.38;;;2.32;100.00
61769;BME280;47669;48.712;9.016;2022-12-07T09:59:13;96526.78;;;2.33;100.00
61769;BME280;47669;48.712;9.016;2022-12-07T10:01:41;96526.94;;;2.40;100.00
61769;BME280;47669;48.712;9.016;2022-12-07T10:04:14;96525.72;;;2.67;100.00
61769;BME280;47669;48.712;9.016;2022-12-07T10:06:41;96523.59;;;3.02;100.00
61769;BME280;47669;48.712;9.016;2022-12-07T10:09:15;96529.38;;;3.12;100.00
61769;BME280;47669;48.712;9.016;2022-12-07T10:12:01;96519.66;;;3.06;100.00
61769;BME280;47669;48.712;9.016;2022-12-07T10:14:29;96530.00;;;3.14;100.00
61769;BME280;47669;48.712;9.016;2022-12-07T10:16:55;96517.81;;;3.14;100.00
61769;BME280;47669;48.712;9.016;2022-12-07T10:19:28;96517.97;;;2.82;100.00
61769;BME280;47669;48.712;9.016;2022-12-07T10:22:01;96509.53;;;2.80;100.00
61769;BME280;47669;48.712;9.016;2022-12-07T10:24:27;96510.59;;;2.62;100.00
61769;BME280;47669;48.712;9.016;2022-12-07T10:26:53;96504.00;;;2.83;100.00
61769;BME280;47669;48.712;9.016;2022-12-07T10:29:38;96506.97;;;3.03;100.00
61769;BME280;47669;48.712;9.016;2022-12-07T10:32:08;96504.59;;;2.93;100.00
61769;BME280;47669;48.712;9.016;2022-12-07T10:34:49;96508.38;;;3.13;100.00
61769;BME280;47669;48.712;9.016;2022-12-07T10:37:18;96501.47;;;2.66;100.00
61769;BME280;47669;48.712;9.016;2022-12-07T10:39:52;96506.94;;;2.80;100.00
61769;BME280;47669;48.712;9.016;2022-12-07T10:42:28;96507.63;;;3.05;100.00
61769;BME280;47669;48.712;9.016;2022-12-07T10:45:13;96502.72;;;2.79;100.00
61769;BME280;47669;48.712;9.016;2022-12-07T10:48:05;96500.72;;;2.89;100.00
61769;BME280;47669;48.712;9.016;2022-12-07T10:53:27;96500.59;;;3.13;100.00
61769;BME280;47669;48.712;9.016;2022-12-07T10:56:31;96486.88;;;3.20;100.00
61769;BME280;47669;48.712;9.016;2022-12-07T11:01:45;96480.34;;;3.01;100.00
61769;BME280;47669;48.712;9.016;2022-12-07T11:04:38;96479.34;;;3.48;100.00
61769;BME280;47669;48.712;9.016;2022-12-07T11:21:30;96467.16;;;3.02;100.00
61769;BME280;47669;48.712;9.016;2022-12-07T11:23:48;96464.84;;;3.30;100.00
61769;BME280;47669;48.712;9.016;2022-12-07T11:32:19;96453.94;;;3.12;100.00
61769;BME280;47669;48.712;9.016;2022-12-07T11:37:28;96448.47;;;3.22;100.00
61769;BME280;47669;48.712;9.016;2022-12-07T11:39:59;96445.88;;;3.22;100.00
61769;BME280;47669;48.712;9.016;2022-12-07T11:42:29;96437.75;;;3.02;100.00
61769;BME280;47669;48.712;9.016;2022-12-07T11:45:00;96445.34;;;3.03;100.00
61769;BME280;47669;48.712;9.016;2022-12-07T11:47:40;96444.22;;;3.29;100.00
61769;BME280;47669;48.712;9.016;2022-12-07T11:53:18;96429.00;;;3.55;100.00
61769;BME280;47669;48.712;9.016;2022-12-07T11:55:53;96428.06;;;3.33;100.00
61769;BME280;47669;48.712;9.016;2022-12-07T11:58:51;96429.66;;;3.34;100.00
61769;BME280;47669;48.712;9.016;2022-12-07T12:06:42;96416.34;;;2.91;100.00
61769;BME280;47669;48.712;9.016;2022-12-07T12:09:19;96421.44;;;3.08;100.00
61769;BME280;47669;48.712;9.016;2022-12-07T12:12:17;96420.56;;;3.15;100.00
61769;BME280;47669;48.712;9.016;2022-12-07T12:15:27;96422.00;;;3.18;100.00
61769;BME280;47669;48.712;9.016;2022-12-07T12:20:43;96419.06;;;2.98;100.00
61769;BME280;47669;48.712;9.016;2022-12-07T12:23:21;96421.06;;;2.88;100.00
61769;BME280;47669;48.712;9.016;2022-12-07T12:25:52;96422.63;;;2.97;100.00
61769;BME280;47669;48.712;9.016;2022-12-07T12:28:29;96423.34;;;2.91;100.00
61769;BME280;47669;48.712;9.016;2022-12-07T12:31:15;96423.03;;;2.86;100.00
61769;BME280;47669;48.712;9.016;2022-12-07T12:33:50;96421.25;;;2.63;100.00
61769;BME280;47669;48.712;9.016;2022-12-07T12:44:01;96418.47;;;2.88;100.00
61769;BME280;47669;48.712;9.016;2022-12-07T12:49:24;96411.97;;;2.92;100.00
61769;BME280;47669;48.712;9.016;2022-12-07T12:54:26;96416.22;;;2.62;100.00
61769;BME280;47669;48.712;9.016;2022-12-07T12:57:03;96412.44;;;2.64;100.00
61769;BME280;47669;48.712;9.016;2022-12-07T12:59:31;96408.97;;;2.49;100.00
61769;BME280;47669;48.712;9.016;2022-12-07T13:05:14;96400.66;;;2.53;100.00
61769;BME280;47669;48.712;9.016;2022-12-07T13:12:56;96401.38;;;2.39;100.00
61769;BME280;47669;48.712;9.016;2022-12-07T13:15:39;96393.69;;;3.00;100.00
61769;BME280;47669;48.712;9.016;2022-12-07T13:26:35;96382.19;;;2.94;100.00
61769;BME280;47669;48.712;9.016;2022-12-07T13:29:10;96387.16;;;2.81;100.00
61769;BME280;47669;48.712;9.016;2022-12-07T13:31:44;96392.25;;;2.74;100.00
61769;BME280;47669;48.712;9.016;2022-12-07T13:34:39;96382.91;;;2.88;100.00
61769;BME280;47669;48.712;9.016;2022-12-07T13:37:16;96390.72;;;2.80;100.00
61769;BME280;47669;48.712;9.016;2022-12-07T13:39:47;96382.97;;;2.49;100.00
61769;BME280;47669;48.712;9.016;2022-12-07T13:42:22;96388.19;;;2.72;100.00
61769;BME280;47669;48.712;9.016;2022-12-07T13:44:49;96381.91;;;2.35;100.00
61769;BME280;47669;48.712;9.016;2022-12-07T13:47:34;96380.31;;;2.80;100.00
61769;BME280;47669;48.712;9.016;2022-12-07T13:50:02;96379.81;;;2.62;100.00
61769;BME280;47669;48.712;9.016;2022-12-07T13:52:29;96378.66;;;2.87;100.00
61769;BME280;47669;48.712;9.016;2022-12-07T13:57:21;96373.50;;;2.56;100.00
61769;BME280;47669;48.712;9.016;2022-12-07T13:59:47;96378.44;;;2.74;100.00
61769;BME280;47669;48.712;9.016;2022-12-07T14:02:21;96371.25;;;2.53;100.00
61769;BME280;47669;48.712;9.016;2022-12-07T14:04:49;96374.06;;;2.43;100.00
61769;BME280;47669;48.712;9.016;2022-12-07T14:07:19;96376.06;;;2.64;100.00
61769;BME280;47669;48.712;9.016;2022-12-07T14:12:42;96378.63;;;2.72;100.00
61769;BME280;47669;48.712;9.016;2022-12-07T14:15:22;96374.63;;;2.62;100.00
61769;BME280;47669;48.712;9.016;2022-12-07T14:17:53;96362.59;;;2.61;100.00
61769;BME280;47669;48.712;9.016;2022-12-07T14:20:35;96357.81;;;2.49;100.00
61769;BME280;47669;48.712;9.016;2022-12-07T14:23:02;96363.28;;;2.54;100.00
61769;BME280;47669;48.712;9.016;2022-12-07T14:25:44;96363.59;;;2.60;100.00
61769;BME280;47669;48.712;9.016;2022-12-07T14:28:25;96361.06;;;2.43;100.00
61769;BME280;47669;48.712;9.016;2022-12-07T14:30:51;96364.56;;;2.27;100.00
61769;BME280;47669;48.712;9.016;2022-12-07T14:33:18;96357.47;;;2.21;100.00
61769;BME280;47669;48.712;9.016;2022-12-07T14:35:43;96363.03;;;2.41;100.00
61769;BME280;47669;48.712;9.016;2022-12-07T14:38:08;96366.72;;;2.55;100.00
61769;BME280;47669;48.712;9.016;2022-12-07T14:40:34;96361.53;;;2.47;100.00
61769;BME280;47669;48.712;9.016;2022-12-07T14:43:05;96370.13;;;2.24;100.00
61769;BME280;47669;48.712;9.016;2022-12-07T14:45:32;96370.09;;;2.32;100.00
61769;BME280;47669;48.712;9.016;2022-12-07T14:47:57;96371.72;;;2.25;100.00
61769;BME280;47669;48.712;9.016;2022-12-07T14:50:23;96367.81;;;2.29;100.00
61769;BME280;47669;48.712;9.016;2022-12-07T14:53:10;96376.84;;;2.42;100.00
61769;BME280;47669;48.712;9.016;2022-12-07T14:55:38;96377.56;;;2.27;100.00
61769;BME280;47669;48.712;9.016;2022-12-07T14:58:03;96368.50;;;2.23;100.00